createdAt,value
2023-01-31T18:15:23.124Z,16.27
2023-01-31T18:20:28.561Z,17.97
2023-01-31T18:25:33.823Z,15.00
2023-01-31T18:30:41.869Z,11.17
2023-01-31T18:35:47.047Z,12.63
2023-01-31T18:40:52.702Z,13.97
2023-01-31T18:46:00.484Z,13.60
2023-01-31T18:51:09.254Z,13.90
2023-01-31T18:56:17.234Z,15.00
2023-01-31T19:01:26.342Z,12.70
2023-01-31T19:06:35.307Z,16.33
2023-01-31T19:11:40.472Z,11.73
2023-01-31T19:16:49.389Z,11.50
2023-01-31T19:21:55.007Z,14.47
2023-01-31T19:27:00.176Z,11.93
2023-01-31T19:32:08.366Z,7.77
2023-01-31T19:37:13.533Z,15.30
2023-01-31T19:42:18.657Z,9.73
2023-01-31T19:47:26.545Z,8.67
2023-01-31T19:52:33.565Z,11.57
2023-01-31T19:57:38.768Z,10.50
2023-01-31T20:02:46.790Z,10.20
2023-01-31T20:07:53.961Z,7.63
2023-01-31T20:13:02.484Z,8.37
2023-01-31T20:18:10.327Z,12.27
2023-01-31T20:23:18.771Z,12.90
2023-01-31T20:28:23.994Z,12.33
2023-01-31T20:33:31.646Z,13.33
2023-01-31T20:38:37.020Z,16.23
2023-01-31T20:43:42.180Z,14.00
2023-01-31T20:48:50.042Z,12.73
2023-01-31T20:53:55.125Z,11.30
2023-01-31T20:59:00.182Z,9.60
2023-01-31T21:04:08.313Z,10.30
2023-01-31T21:09:13.869Z,8.90
2023-01-31T21:14:19.014Z,7.80
2023-01-31T21:19:26.838Z,10.47
2023-01-31T21:24:32.059Z,10.70
2023-01-31T21:29:37.496Z,9.97
2023-01-31T21:34:45.280Z,13.43
2023-01-31T21:39:50.741Z,18.17
2023-01-31T21:44:55.940Z,18.37
2023-01-31T21:50:04.473Z,15.37
2023-01-31T21:55:10.589Z,13.83
2023-01-31T22:00:16.818Z,13.17
2023-01-31T22:05:24.632Z,15.23
2023-01-31T22:10:29.889Z,18.60
2023-01-31T22:15:35.574Z,17.50
2023-01-31T22:20:43.334Z,19.20
